Time;durP1;ratioP1;P1;durP2;ratioP2;P2;SDS_P1;SDS_P2;PMS_P1;PMS_P2;Temp;Humidity;BMP_temperature;BMP_pressure;BME280_temperature;BME280_humidity;BME280_pressure;Samples;Min_cycle;Max_cycle;Signal;HPM_P1;HPM_P2
2023/04/20 00:00:35;;;;;;;21.80;18.38;;;;;;;;;;5015736;28;20022;-72
2023/04/20 00:03:02;;;;;;;21.88;18.65;;;;;;;;;;5013843;28;20041;-71
2023/04/20 00:05:28;;;;;;;20.00;16.45;;;;;;;;;;5015662;28;20444;-76
2023/04/20 00:07:54;;;;;;;21.67;17.30;;;;;;;;;;5015665;28;20025;-74
2023/04/20 00:10:19;;;;;;;22.90;18.20;;;;;;;;;;5011419;28;20030;-72
2023/04/20 00:12:44;;;;;;;21.13;17.80;;;;;;;;;;5004721;28;20755;-72
2023/04/20 00:15:10;;;;;;;19.30;17.05;;;;;;;;;;5015281;28;20041;-71
2023/04/20 00:17:37;;;;;;;18.83;15.93;;;;;;;;;;5015279;28;20033;-71
2023/04/20 00:20:02;;;;;;;16.08;14.32;;;;;;;;;;5016725;28;20109;-73
2023/04/20 00:22:29;;;;;;;18.17;14.60;;;;;;;;;;5015774;28;20112;-71
2023/04/20 00:24:55;;;;;;;18.25;15.07;;;;;;;;;;5016691;28;20029;-71
2023/04/20 00:27:20;;;;;;;18.98;14.85;;;;;;;;;;5009145;28;21001;-72
2023/04/20 00:29:45;;;;;;;20.50;16.08;;;;;;;;;;5012202;28;20032;-71
2023/04/20 00:32:11;;;;;;;26.33;19.08;;;;;;;;;;5018123;28;20062;-71
2023/04/20 00:34:36;;;;;;;27.58;21.40;;;;;;;;;;5015233;28;20034;-72
2023/04/20 00:37:01;;;;;;;28.48;21.50;;;;;;;;;;5014724;28;20421;-71
2023/04/20 00:39:27;;;;;;;23.23;19.30;;;;;;;;;;5015901;28;20375;-72
2023/04/20 00:41:52;;;;;;;22.30;18.23;;;;;;;;;;5007069;28;20037;-75
2023/04/20 00:44:17;;;;;;;23.05;17.13;;;;;;;;;;5006801;28;20116;-71
2023/04/20 00:46:43;;;;;;;19.95;16.75;;;;;;;;;;5016569;28;20022;-71
2023/04/20 00:49:08;;;;;;;19.08;16.50;;;;;;;;;;5016138;28;20420;-75
2023/04/20 00:51:34;;;;;;;22.13;17.65;;;;;;;;;;5016159;28;20434;-71
2023/04/20 00:54:00;;;;;;;22.38;17.27;;;;;;;;;;5015050;28;20040;-70
2023/04/20 00:56:25;;;;;;;18.48;16.48;;;;;;;;;;5011770;28;20029;-71
2023/04/20 00:58:50;;;;;;;22.50;17.60;;;;;;;;;;5003671;28;20033;-70
2023/04/20 01:01:16;;;;;;;20.13;17.13;;;;;;;;;;5016223;28;20061;-71
2023/04/20 01:03:41;;;;;;;16.38;14.02;;;;;;;;;;5015208;28;20108;-72
2023/04/20 01:06:07;;;;;;;14.77;12.57;;;;;;;;;;5016217;28;20073;-73
2023/04/20 01:08:33;;;;;;;14.25;12.75;;;;;;;;;;5017005;28;20022;-72
2023/04/20 01:10:58;;;;;;;18.88;15.65;;;;;;;;;;5014061;28;20409;-73
2023/04/20 01:13:24;;;;;;;24.15;19.90;;;;;;;;;;5011808;28;20111;-71
2023/04/20 01:15:49;;;;;;;23.83;18.77;;;;;;;;;;5010872;28;20469;-71
2023/04/20 01:18:16;;;;;;;19.05;16.23;;;;;;;;;;5007622;28;20032;-73
2023/04/20 01:20:42;;;;;;;16.80;14.63;;;;;;;;;;5015234;28;20042;-71
2023/04/20 01:23:08;;;;;;;20.23;15.00;;;;;;;;;;5015139;28;20021;-73
2023/04/20 01:25:33;;;;;;;21.67;15.50;;;;;;;;;;5017073;28;21193;-74
2023/04/20 01:27:59;;;;;;;19.58;15.20;;;;;;;;;;5012374;28;20059;-71
2023/04/20 01:30:24;;;;;;;16.90;14.25;;;;;;;;;;5014570;28;20041;-70
2023/04/20 01:32:50;;;;;;;15.98;13.93;;;;;;;;;;5005369;28;20025;-71
2023/04/20 01:35:15;;;;;;;17.02;15.25;;;;;;;;;;5014378;28;20041;-72
2023/04/20 01:37:41;;;;;;;17.35;14.75;;;;;;;;;;5015605;28;20376;-72
2023/04/20 01:40:10;;;;;;;20.15;16.30;;;;;;;;;;5012323;28;20029;-71
2023/04/20 01:42:35;;;;;;;20.17;15.85;;;;;;;;;;5000318;28;20026;-71
2023/04/20 01:45:01;;;;;;;19.95;16.65;;;;;;;;;;5012892;28;20224;-70
2023/04/20 01:47:26;;;;;;;19.02;16.63;;;;;;;;;;5006874;28;20041;-73
2023/04/20 01:49:51;;;;;;;20.00;16.85;;;;;;;;;;5009835;28;20026;-72
2023/04/20 01:52:17;;;;;;;19.70;17.65;;;;;;;;;;5015918;28;20040;-72
2023/04/20 01:54:42;;;;;;;20.35;16.13;;;;;;;;;;5014555;28;20052;-72
2023/04/20 01:57:07;;;;;;;18.25;15.10;;;;;;;;;;5011637;28;20029;-73
2023/04/20 01:59:33;;;;;;;17.88;16.02;;;;;;;;;;5003694;28;20038;-71
2023/04/20 02:01:58;;;;;;;17.33;14.75;;;;;;;;;;5012728;28;20037;-72
2023/04/20 02:04:23;;;;;;;22.27;17.92;;;;;;;;;;5007597;28;20090;-71
2023/04/20 02:06:49;;;;;;;20.10;15.10;;;;;;;;;;5011503;28;20025;-71
2023/04/20 02:09:14;;;;;;;13.15;11.70;;;;;;;;;;5014089;28;20030;-71
2023/04/20 02:11:39;;;;;;;13.70;12.25;;;;;;;;;;5009012;28;20404;-71
2023/04/20 02:14:05;;;;;;;14.05;12.55;;;;;;;;;;5005007;28;20073;-74
2023/04/20 02:16:30;;;;;;;13.85;12.32;;;;;;;;;;5014208;28;20017;-72
2023/04/20 02:18:56;;;;;;;15.10;13.30;;;;;;;;;;5011261;28;20142;-74
2023/04/20 02:21:22;;;;;;;13.75;11.55;;;;;;;;;;5008208;28;20439;-72
2023/04/20 02:23:47;;;;;;;13.15;11.85;;;;;;;;;;5013841;28;20102;-74
2023/04/20 02:26:12;;;;;;;14.77;13.27;;;;;;;;;;5012156;28;20109;-71
2023/04/20 02:28:38;;;;;;;15.40;12.88;;;;;;;;;;5013989;28;20056;-72
2023/04/20 02:31:03;;;;;;;12.85;11.60;;;;;;;;;;5013958;28;20032;-71
2023/04/20 02:33:29;;;;;;;12.40;11.07;;;;;;;;;;5013509;28;20041;-72
2023/04/20 02:35:54;;;;;;;13.10;11.50;;;;;;;;;;5004010;28;20061;-75
2023/04/20 02:38:20;;;;;;;18.27;12.57;;;;;;;;;;5003441;28;20025;-73
2023/04/20 02:40:45;;;;;;;15.80;12.57;;;;;;;;;;5011387;28;20620;-73
2023/04/20 02:43:10;;;;;;;15.13;13.48;;;;;;;;;;5004887;28;20038;-72
2023/04/20 02:45:36;;;;;;;15.38;13.70;;;;;;;;;;5011604;28;20429;-72
2023/04/20 02:48:01;;;;;;;16.90;14.20;;;;;;;;;;5014382;28;20647;-71
2023/04/20 02:50:26;;;;;;;17.35;13.70;;;;;;;;;;5005512;28;20025;-71
2023/04/20 02:52:52;;;;;;;15.60;13.70;;;;;;;;;;5010210;28;20029;-71
2023/04/20 02:55:17;;;;;;;15.55;14.02;;;;;;;;;;5012668;28;20038;-70
2023/04/20 02:57:42;;;;;;;17.50;15.60;;;;;;;;;;5012453;28;20026;-70
2023/04/20 03:00:08;;;;;;;17.60;15.68;;;;;;;;;;5013240;28;20030;-74
2023/04/20 03:02:35;;;;;;;28.98;22.17;;;;;;;;;;5014732;28;20433;-72
2023/04/20 03:05:01;;;;;;;22.85;19.60;;;;;;;;;;5012997;28;20097;-71
2023/04/20 03:07:27;;;;;;;20.83;18.42;;;;;;;;;;5004285;28;20033;-71
2023/04/20 03:09:52;;;;;;;22.83;18.58;;;;;;;;;;5011139;28;20230;-73
2023/04/20 03:12:17;;;;;;;21.17;18.20;;;;;;;;;;5011620;28;20145;-70
2023/04/20 03:14:43;;;;;;;20.33;16.25;;;;;;;;;;5012456;28;20112;-74
2023/04/20 03:17:08;;;;;;;24.23;18.67;;;;;;;;;;5012612;28;20067;-72
2023/04/20 03:19:34;;;;;;;25.52;20.30;;;;;;;;;;5013370;28;20038;-70
2023/04/20 03:22:00;;;;;;;20.40;15.77;;;;;;;;;;5004058;28;20033;-72
2023/04/20 03:24:25;;;;;;;22.48;18.08;;;;;;;;;;5010981;28;20085;-71
2023/04/20 03:26:50;;;;;;;16.27;13.70;;;;;;;;;;5013387;28;20047;-74
2023/04/20 03:29:16;;;;;;;13.73;12.32;;;;;;;;;;5014413;28;20080;-72
2023/04/20 03:31:41;;;;;;;13.80;12.40;;;;;;;;;;5010167;28;20042;-72
2023/04/20 03:34:07;;;;;;;13.70;12.32;;;;;;;;;;5017708;28;20025;-72
2023/04/20 03:36:32;;;;;;;13.27;12.07;;;;;;;;;;5008817;28;20064;-73
2023/04/20 03:38:57;;;;;;;13.35;11.95;;;;;;;;;;5001110;28;20410;-71
2023/04/20 03:41:23;;;;;;;14.40;12.90;;;;;;;;;;5003219;28;20033;-73
2023/04/20 03:43:48;;;;;;;13.25;11.90;;;;;;;;;;5003101;28;20025;-71
2023/04/20 03:46:14;;;;;;;13.27;11.90;;;;;;;;;;5003347;28;20029;-71
2023/04/20 03:48:39;;;;;;;12.95;11.65;;;;;;;;;;4996726;28;20022;-72
2023/04/20 03:51:04;;;;;;;14.32;12.93;;;;;;;;;;5000583;28;20029;-71
2023/04/20 03:53:30;;;;;;;15.00;13.40;;;;;;;;;;5000486;28;20048;-71
2023/04/20 03:55:55;;;;;;;15.80;14.23;;;;;;;;;;5001241;28;20030;-71
2023/04/20 03:58:21;;;;;;;16.50;14.77;;;;;;;;;;5002200;28;20029;-72
2023/04/20 04:00:47;;;;;;;17.25;15.65;;;;;;;;;;5005357;28;20460;-74
2023/04/20 04:03:12;;;;;;;21.80;19.50;;;;;;;;;;5012997;28;20049;-73
2023/04/20 04:05:39;;;;;;;28.73;25.73;;;;;;;;;;5014023;28;20429;-74
2023/04/20 04:08:04;;;;;;;24.60;21.98;;;;;;;;;;5002687;28;20390;-72
2023/04/20 04:10:29;;;;;;;28.88;21.33;;;;;;;;;;5017355;28;20021;-73
2023/04/20 04:12:55;;;;;;;27.80;21.58;;;;;;;;;;5016734;28;20057;-74
2023/04/20 04:15:20;;;;;;;31.83;28.38;;;;;;;;;;5015398;28;20037;-72
2023/04/20 04:17:46;;;;;;;20.85;18.63;;;;;;;;;;5013372;28;20037;-71
2023/04/20 04:20:12;;;;;;;27.67;21.73;;;;;;;;;;5006209;28;20018;-75
2023/04/20 04:22:37;;;;;;;35.40;26.67;;;;;;;;;;5003235;28;20030;-73
2023/04/20 04:25:03;;;;;;;44.83;31.60;;;;;;;;;;5004169;28;20029;-71
2023/04/20 04:27:33;;;;;;;35.45;27.13;;;;;;;;;;5009428;28;20029;-72
2023/04/20 04:29:59;;;;;;;128.95;88.75;;;;;;;;;;5014937;28;20045;-72
2023/04/20 04:32:25;;;;;;;216.07;145.63;;;;;;;;;;5016751;28;20040;-73
2023/04/20 04:34:51;;;;;;;208.50;150.88;;;;;;;;;;5014744;28;20038;-73
2023/04/20 04:37:17;;;;;;;152.85;116.78;;;;;;;;;;5015402;28;20022;-76
2023/04/20 04:39:43;;;;;;;140.50;106.32;;;;;;;;;;5012915;28;20448;-73
2023/04/20 04:42:08;;;;;;;71.13;56.08;;;;;;;;;;4998726;28;20057;-74
2023/04/20 04:44:33;;;;;;;61.63;50.83;;;;;;;;;;5006134;28;20037;-72
2023/04/20 04:47:01;;;;;;;239.63;189.10;;;;;;;;;;5014801;28;20022;-73
2023/04/20 04:49:28;;;;;;;55.03;46.00;;;;;;;;;;5015706;28;20067;-73
2023/04/20 04:51:53;;;;;;;95.90;75.78;;;;;;;;;;5016255;28;20466;-72
2023/04/20 04:54:19;;;;;;;81.22;67.93;;;;;;;;;;5015141;28;20029;-72
2023/04/20 04:56:44;;;;;;;48.85;38.58;;;;;;;;;;5011460;28;20124;-75
2023/04/20 04:59:09;;;;;;;54.88;46.22;;;;;;;;;;5014992;28;20061;-72
2023/04/20 05:01:35;;;;;;;47.05;38.25;;;;;;;;;;5013922;28;20409;-72
2023/04/20 05:04:00;;;;;;;54.85;46.95;;;;;;;;;;5003906;28;20340;-71
2023/04/20 05:06:26;;;;;;;39.33;35.08;;;;;;;;;;5015964;28;20022;-72
2023/04/20 05:08:51;;;;;;;27.63;24.67;;;;;;;;;;5014497;28;20018;-73
2023/04/20 05:11:16;;;;;;;32.72;29.13;;;;;;;;;;5015220;28;20436;-72
2023/04/20 05:13:42;;;;;;;38.78;34.47;;;;;;;;;;5013862;28;20366;-76
2023/04/20 05:16:07;;;;;;;51.80;44.38;;;;;;;;;;5015990;28;20492;-73
2023/04/20 05:18:32;;;;;;;24.60;22.05;;;;;;;;;;5011184;28;20080;-73
2023/04/20 05:20:58;;;;;;;19.00;16.95;;;;;;;;;;5007918;28;20041;-73
2023/04/20 05:23:23;;;;;;;23.73;21.20;;;;;;;;;;5005601;28;20033;-77
2023/04/20 05:25:49;;;;;;;24.65;22.02;;;;;;;;;;5011297;28;20013;-72
2023/04/20 05:28:14;;;;;;;21.52;19.35;;;;;;;;;;5013666;28;20140;-72
2023/04/20 05:30:39;;;;;;;22.42;20.10;;;;;;;;;;5013393;28;20336;-72
2023/04/20 05:33:05;;;;;;;21.13;18.92;;;;;;;;;;5003394;28;20168;-75
2023/04/20 05:35:30;;;;;;;22.90;20.60;;;;;;;;;;5009270;28;20073;-73
2023/04/20 05:37:59;;;;;;;50.38;44.90;;;;;;;;;;5010366;28;20025;-73
2023/04/20 05:40:24;;;;;;;43.70;39.13;;;;;;;;;;5013399;28;20025;-72
2023/04/20 05:42:49;;;;;;;34.67;30.27;;;;;;;;;;5011092;28;20396;-73
2023/04/20 05:45:15;;;;;;;36.05;31.73;;;;;;;;;;5007073;28;20045;-75
2023/04/20 05:47:40;;;;;;;52.97;37.80;;;;;;;;;;5008759;28;20109;-75
2023/04/20 05:50:06;;;;;;;52.83;40.92;;;;;;;;;;5012895;28;20036;-73
2023/04/20 05:52:31;;;;;;;34.55;28.65;;;;;;;;;;5013598;28;21019;-74
2023/04/20 05:54:58;;;;;;;34.88;31.17;;;;;;;;;;5012029;28;20034;-72
2023/04/20 05:57:23;;;;;;;28.90;25.80;;;;;;;;;;5009588;28;20026;-73
2023/04/20 05:59:49;;;;;;;26.60;23.70;;;;;;;;;;5012694;28;20090;-73
2023/04/20 06:02:14;;;;;;;26.38;23.58;;;;;;;;;;5014480;28;20090;-72
2023/04/20 06:04:41;;;;;;;25.38;22.88;;;;;;;;;;5013391;28;20010;-75
2023/04/20 06:07:07;;;;;;;31.52;27.45;;;;;;;;;;5014739;28;20410;-73
2023/04/20 06:09:32;;;;;;;29.83;24.52;;;;;;;;;;5015390;28;20022;-72
2023/04/20 06:11:59;;;;;;;28.75;24.80;;;;;;;;;;5014844;28;20026;-72
2023/04/20 06:14:24;;;;;;;21.55;19.35;;;;;;;;;;5014410;28;20070;-72
2023/04/20 06:16:49;;;;;;;27.05;18.60;;;;;;;;;;5013785;28;20377;-71
2023/04/20 06:19:15;;;;;;;19.38;17.52;;;;;;;;;;5015355;28;20032;-74
2023/04/20 06:21:40;;;;;;;21.15;19.05;;;;;;;;;;5013916;28;20877;-72
2023/04/20 06:24:06;;;;;;;21.92;19.73;;;;;;;;;;5014098;28;20404;-75
2023/04/20 06:26:31;;;;;;;25.02;22.50;;;;;;;;;;5014626;28;20040;-73
2023/04/20 06:28:56;;;;;;;24.52;22.02;;;;;;;;;;5013651;28;20512;-71
2023/04/20 06:31:22;;;;;;;23.45;20.98;;;;;;;;;;5014992;28;20037;-72
2023/04/20 06:33:47;;;;;;;24.92;22.33;;;;;;;;;;5013086;28;20086;-71
2023/04/20 06:36:12;;;;;;;23.15;20.90;;;;;;;;;;5012211;28;20463;-71
2023/04/20 06:38:39;;;;;;;21.52;19.33;;;;;;;;;;5012375;28;20061;-72
2023/04/20 06:41:04;;;;;;;22.15;19.95;;;;;;;;;;5013151;28;20641;-72
2023/04/20 06:43:30;;;;;;;22.70;20.38;;;;;;;;;;5013847;28;20037;-73
2023/04/20 06:45:55;;;;;;;20.75;18.65;;;;;;;;;;5013316;28;20413;-72
2023/04/20 06:48:21;;;;;;;19.35;17.40;;;;;;;;;;5013978;28;20038;-73
2023/04/20 06:50:48;;;;;;;22.92;19.33;;;;;;;;;;5012573;28;20053;-71
2023/04/20 06:53:13;;;;;;;19.95;18.05;;;;;;;;;;5014988;28;20036;-72
2023/04/20 06:55:38;;;;;;;20.35;18.27;;;;;;;;;;5015505;28;20022;-71
2023/04/20 06:58:04;;;;;;;19.75;17.83;;;;;;;;;;5012325;28;20017;-75
2023/04/20 07:00:30;;;;;;;21.67;19.55;;;;;;;;;;5011729;28;20433;-72
2023/04/20 07:02:55;;;;;;;24.73;22.10;;;;;;;;;;5010473;28;20029;-71
2023/04/20 07:05:21;;;;;;;22.10;19.63;;;;;;;;;;5014001;28;20097;-71
2023/04/20 07:07:46;;;;;;;31.05;27.48;;;;;;;;;;5014023;28;20025;-71
2023/04/20 07:10:12;;;;;;;37.90;30.95;;;;;;;;;;5013420;28;20501;-72
2023/04/20 07:12:38;;;;;;;21.98;19.42;;;;;;;;;;5013622;28;20040;-74
2023/04/20 07:15:05;;;;;;;19.30;17.17;;;;;;;;;;5014237;28;20368;-74
2023/04/20 07:17:31;;;;;;;24.92;20.73;;;;;;;;;;5013256;28;20033;-72
2023/04/20 07:19:57;;;;;;;21.67;19.40;;;;;;;;;;5014640;28;20021;-71
2023/04/20 07:22:23;;;;;;;19.80;17.85;;;;;;;;;;5010179;28;20424;-73
2023/04/20 07:24:48;;;;;;;25.90;23.17;;;;;;;;;;5012636;28;20033;-71
2023/04/20 07:27:14;;;;;;;22.67;20.00;;;;;;;;;;5012648;28;20033;-71
2023/04/20 07:29:39;;;;;;;19.20;17.30;;;;;;;;;;5012136;28;20030;-72
2023/04/20 07:32:04;;;;;;;20.15;18.05;;;;;;;;;;5012274;28;20025;-71
2023/04/20 07:34:30;;;;;;;18.67;16.75;;;;;;;;;;5013201;28;20527;-71
2023/04/20 07:36:55;;;;;;;19.83;17.80;;;;;;;;;;5012353;28;20053;-71
2023/04/20 07:39:21;;;;;;;23.70;21.00;;;;;;;;;;5013970;28;20035;-71
2023/04/20 07:41:46;;;;;;;22.33;18.00;;;;;;;;;;5013098;28;20037;-70
2023/04/20 07:44:12;;;;;;;22.13;18.80;;;;;;;;;;5012900;28;20030;-71
2023/04/20 07:46:37;;;;;;;26.88;20.75;;;;;;;;;;5012543;28;20172;-70
2023/04/20 07:49:03;;;;;;;17.70;15.52;;;;;;;;;;5012434;28;20021;-72
2023/04/20 07:51:29;;;;;;;20.77;17.42;;;;;;;;;;5013646;28;20134;-71
2023/04/20 07:53:55;;;;;;;19.10;16.77;;;;;;;;;;5012538;28;20064;-70
2023/04/20 07:56:20;;;;;;;19.35;17.05;;;;;;;;;;5012589;28;20068;-72
2023/04/20 07:58:45;;;;;;;22.13;18.13;;;;;;;;;;5013481;28;20447;-70
2023/04/20 08:01:11;;;;;;;21.75;17.05;;;;;;;;;;5014067;28;20030;-71
2023/04/20 08:03:36;;;;;;;15.82;13.10;;;;;;;;;;5012938;28;20033;-71
2023/04/20 08:06:02;;;;;;;17.70;14.52;;;;;;;;;;5013465;28;20061;-73
2023/04/20 08:08:27;;;;;;;18.23;16.33;;;;;;;;;;5012579;28;20029;-72
2023/04/20 08:10:55;;;;;;;19.42;17.42;;;;;;;;;;5011260;28;20074;-72
2023/04/20 08:13:20;;;;;;;44.15;37.08;;;;;;;;;;5012162;28;20041;-72
2023/04/20 08:15:46;;;;;;;43.20;29.05;;;;;;;;;;5015296;28;20025;-71
2023/04/20 08:18:11;;;;;;;18.67;16.15;;;;;;;;;;5017388;28;20018;-71
2023/04/20 08:20:37;;;;;;;18.67;16.77;;;;;;;;;;5015386;28;21173;-73
2023/04/20 08:23:02;;;;;;;22.13;19.65;;;;;;;;;;5014274;28;20349;-72
2023/04/20 08:25:27;;;;;;;17.17;15.40;;;;;;;;;;5016837;28;20357;-70
2023/04/20 08:27:53;;;;;;;14.15;12.60;;;;;;;;;;5013854;28;20049;-74
2023/04/20 08:30:18;;;;;;;23.83;21.15;;;;;;;;;;5017989;28;20117;-71
2023/04/20 08:32:43;;;;;;;16.95;15.25;;;;;;;;;;5016912;28;20026;-71
2023/04/20 08:35:09;;;;;;;20.35;18.25;;;;;;;;;;5015585;28;20046;-74
2023/04/20 08:37:34;;;;;;;20.27;17.02;;;;;;;;;;5015378;28;20036;-71
2023/04/20 08:40:00;;;;;;;12.77;11.60;;;;;;;;;;5016545;28;20383;-71
2023/04/20 08:42:25;;;;;;;22.88;18.52;;;;;;;;;;5017322;28;20048;-71
2023/04/20 08:44:51;;;;;;;24.83;18.98;;;;;;;;;;5015091;28;20041;-72
2023/04/20 08:47:16;;;;;;;20.27;15.80;;;;;;;;;;5015841;28;20177;-73
2023/04/20 08:49:43;;;;;;;13.07;11.38;;;;;;;;;;5015251;28;20021;-71
2023/04/20 08:52:10;;;;;;;14.60;12.52;;;;;;;;;;5015078;28;20086;-72
2023/04/20 08:54:36;;;;;;;13.23;11.82;;;;;;;;;;5016577;28;20033;-72
2023/04/20 08:57:02;;;;;;;10.65;9.55;;;;;;;;;;5014984;28;20030;-73
2023/04/20 08:59:27;;;;;;;11.88;10.70;;;;;;;;;;5015827;28;20341;-72
2023/04/20 09:01:52;;;;;;;20.83;16.55;;;;;;;;;;5015477;28;20448;-73
2023/04/20 09:04:19;;;;;;;17.73;13.60;;;;;;;;;;5013689;28;20072;-72
2023/04/20 09:06:45;;;;;;;20.00;17.00;;;;;;;;;;5013981;28;20336;-72
2023/04/20 09:09:11;;;;;;;14.52;12.82;;;;;;;;;;5014327;28;20072;-75
2023/04/20 09:11:36;;;;;;;13.05;11.65;;;;;;;;;;5012237;28;20460;-72
2023/04/20 09:14:09;;;;;;;14.32;12.30;;;;;;;;;;5014091;28;20037;-73
2023/04/20 09:16:35;;;;;;;14.75;12.80;;;;;;;;;;5014606;28;20124;-72
2023/04/20 09:19:01;;;;;;;15.25;13.73;;;;;;;;;;5013355;28;20034;-72
2023/04/20 09:21:30;;;;;;;15.60;13.45;;;;;;;;;;5016557;28;20028;-74
2023/04/20 09:23:59;;;;;;;10.90;9.80;;;;;;;;;;5014658;28;20085;-72
2023/04/20 09:26:25;;;;;;;10.20;9.10;;;;;;;;;;5014155;28;20037;-75
2023/04/20 09:28:50;;;;;;;10.85;9.05;;;;;;;;;;5013882;28;21242;-72
2023/04/20 09:31:20;;;;;;;42.95;26.85;;;;;;;;;;5014284;28;20038;-72
2023/04/20 09:33:45;;;;;;;;;;;;;;;;;;5015686;28;20029;-73
2023/04/20 09:36:11;;;;;;;14.23;9.73;;;;;;;;;;5014527;28;19929;-72
2023/04/20 09:38:36;;;;;;;29.88;22.67;;;;;;;;;;5015385;28;20026;-72
2023/04/20 09:41:02;;;;;;;18.50;15.68;;;;;;;;;;5015969;28;20026;-71
2023/04/20 09:43:29;;;;;;;15.20;9.60;;;;;;;;;;5013719;28;20021;-76
2023/04/20 09:45:57;;;;;;;16.63;12.15;;;;;;;;;;5015288;28;20824;-72
2023/04/20 09:48:23;;;;;;;11.80;9.82;;;;;;;;;;5015404;28;20029;-72
2023/04/20 09:50:48;;;;;;;14.35;11.40;;;;;;;;;;5015593;28;20029;-76
2023/04/20 09:53:17;;;;;;;11.05;9.95;;;;;;;;;;5013818;28;20037;-74
2023/04/20 09:55:47;;;;;;;13.68;12.40;;;;;;;;;;5015773;28;20048;-73
2023/04/20 09:58:12;;;;;;;14.32;12.63;;;;;;;;;;5015442;28;20035;-72
2023/04/20 10:00:38;;;;;;;12.48;9.88;;;;;;;;;;5014801;28;20025;-72
2023/04/20 10:03:03;;;;;;;13.38;9.77;;;;;;;;;;5016461;28;20336;-72
2023/04/20 10:05:32;;;;;;;21.70;18.33;;;;;;;;;;5013662;28;20044;-75
2023/04/20 10:08:00;;;;;;;19.42;17.27;;;;;;;;;;5014167;28;20021;-72
2023/04/20 10:10:25;;;;;;;18.02;16.17;;;;;;;;;;5012948;28;20025;-72
2023/04/20 10:12:52;;;;;;;14.27;11.60;;;;;;;;;;5012914;28;20105;-74
2023/04/20 10:15:18;;;;;;;13.13;11.85;;;;;;;;;;5013280;28;20375;-71
2023/04/20 10:17:43;;;;;;;17.02;11.15;;;;;;;;;;5012068;28;20034;-72
2023/04/20 10:20:25;;;;;;;13.27;11.77;;;;;;;;;;5012645;28;20017;-72
2023/04/20 10:22:51;;;;;;;14.30;10.65;;;;;;;;;;5014207;28;20037;-72
2023/04/20 10:25:19;;;;;;;18.17;16.27;;;;;;;;;;5012806;28;20442;-72
2023/04/20 10:28:03;;;;;;;15.52;13.88;;;;;;;;;;5011932;28;20060;-73
2023/04/20 10:30:29;;;;;;;20.65;15.70;;;;;;;;;;5015913;28;20846;-72
2023/04/20 10:33:21;;;;;;;17.05;13.57;;;;;;;;;;5014279;28;20030;-72
2023/04/20 10:35:48;;;;;;;13.73;12.27;;;;;;;;;;5016397;28;20484;-74
2023/04/20 10:38:13;;;;;;;12.68;10.60;;;;;;;;;;5014583;28;20056;-71
2023/04/20 10:40:39;;;;;;;12.70;11.40;;;;;;;;;;5015425;28;20432;-72
2023/04/20 10:43:16;;;;;;;11.57;10.10;;;;;;;;;;5015345;28;20025;-71
2023/04/20 10:45:41;;;;;;;13.70;12.20;;;;;;;;;;5015249;28;20029;-72
2023/04/20 10:48:08;;;;;;;16.10;13.95;;;;;;;;;;5015209;28;20032;-72
2023/04/20 10:50:33;;;;;;;12.60;11.38;;;;;;;;;;5013027;28;20034;-72
2023/04/20 10:52:59;;;;;;;11.88;9.65;;;;;;;;;;5013443;28;20036;-72
2023/04/20 10:55:25;;;;;;;12.27;10.35;;;;;;;;;;5013109;28;20029;-72
2023/04/20 10:57:50;;;;;;;15.23;13.25;;;;;;;;;;5016042;28;20033;-71
2023/04/20 11:00:17;;;;;;;11.73;9.32;;;;;;;;;;5013953;28;20116;-71
2023/04/20 11:02:49;;;;;;;9.60;7.68;;;;;;;;;;5014469;28;20026;-72
2023/04/20 11:05:14;;;;;;;10.75;8.38;;;;;;;;;;5010632;28;20021;-71
2023/04/20 11:07:53;;;;;;;11.95;9.32;;;;;;;;;;5012981;28;20728;-73
2023/04/20 11:10:18;;;;;;;13.40;10.93;;;;;;;;;;5011109;28;20352;-72
2023/04/20 11:12:44;;;;;;;9.70;8.73;;;;;;;;;;5013830;28;20034;-73
2023/04/20 11:15:09;;;;;;;11.15;9.65;;;;;;;;;;5014386;28;20047;-71
2023/04/20 11:17:35;;;;;;;13.30;10.43;;;;;;;;;;5011977;28;20022;-72
2023/04/20 11:20:09;;;;;;;15.32;13.35;;;;;;;;;;5012874;28;20732;-73
2023/04/20 11:22:35;;;;;;;16.83;12.57;;;;;;;;;;5012726;28;20039;-72
2023/04/20 11:25:06;;;;;;;11.10;10.00;;;;;;;;;;5013683;28;20022;-72
2023/04/20 11:27:35;;;;;;;20.00;15.52;;;;;;;;;;5012076;28;20083;-73
2023/04/20 11:30:04;;;;;;;11.95;9.73;;;;;;;;;;5012650;28;20029;-71
2023/04/20 11:32:31;;;;;;;9.10;8.10;;;;;;;;;;5012793;28;20313;-75
2023/04/20 11:35:15;;;;;;;11.55;9.10;;;;;;;;;;5013131;28;20029;-73
2023/04/20 11:37:46;;;;;;;14.15;11.10;;;;;;;;;;5012889;28;20078;-71
2023/04/20 11:40:12;;;;;;;21.98;17.35;;;;;;;;;;5014267;28;20025;-72
2023/04/20 11:42:37;;;;;;;23.00;19.10;;;;;;;;;;5012690;28;20036;-71
2023/04/20 11:45:03;;;;;;;16.30;14.60;;;;;;;;;;5014893;28;20492;-73
2023/04/20 11:47:29;;;;;;;29.88;24.45;;;;;;;;;;5012835;28;20040;-72
2023/04/20 11:49:54;;;;;;;27.63;22.08;;;;;;;;;;5016142;28;20025;-71
2023/04/20 11:52:20;;;;;;;17.02;15.13;;;;;;;;;;5015229;28;20038;-72
2023/04/20 11:54:45;;;;;;;19.02;16.95;;;;;;;;;;5017824;28;20072;-71
2023/04/20 11:57:10;;;;;;;20.38;18.20;;;;;;;;;;5018615;28;20033;-72
2023/04/20 11:59:36;;;;;;;26.73;23.90;;;;;;;;;;5018403;28;20029;-71
2023/04/20 12:02:02;;;;;;;20.45;17.48;;;;;;;;;;5018441;28;20548;-70
2023/04/20 12:04:28;;;;;;;25.60;21.55;;;;;;;;;;5016672;28;20014;-72
2023/04/20 12:06:53;;;;;;;18.05;15.00;;;;;;;;;;5016279;28;20028;-71
2023/04/20 12:09:19;;;;;;;20.27;17.00;;;;;;;;;;5016694;28;20044;-70
2023/04/20 12:11:44;;;;;;;17.25;13.88;;;;;;;;;;5016408;28;20025;-72
2023/04/20 12:14:10;;;;;;;20.40;16.00;;;;;;;;;;5015683;28;20053;-72
2023/04/20 12:16:35;;;;;;;11.40;9.02;;;;;;;;;;5015255;28;20033;-74
2023/04/20 12:19:01;;;;;;;9.30;8.50;;;;;;;;;;5014572;28;20100;-73
2023/04/20 12:21:26;;;;;;;10.73;9.65;;;;;;;;;;5016193;28;20040;-71
2023/04/20 12:23:51;;;;;;;9.57;7.90;;;;;;;;;;5015328;28;20033;-70
2023/04/20 12:26:17;;;;;;;7.10;6.40;;;;;;;;;;5016032;28;20045;-73
2023/04/20 12:28:44;;;;;;;6.70;6.07;;;;;;;;;;5013384;28;20046;-70
2023/04/20 12:31:09;;;;;;;8.05;6.88;;;;;;;;;;5015842;28;20069;-71
2023/04/20 12:33:34;;;;;;;11.35;10.20;;;;;;;;;;5015525;28;20029;-71
2023/04/20 12:36:00;;;;;;;12.05;10.85;;;;;;;;;;5015752;28;20059;-71
2023/04/20 12:38:25;;;;;;;14.73;13.23;;;;;;;;;;5016158;28;20116;-72
2023/04/20 12:40:50;;;;;;;13.98;10.80;;;;;;;;;;5016518;28;20037;-75
2023/04/20 12:43:16;;;;;;;10.95;9.38;;;;;;;;;;5001891;28;23254;-72
2023/04/20 12:45:41;;;;;;;11.40;10.20;;;;;;;;;;5001451;28;20017;-72
2023/04/20 12:48:06;;;;;;;11.18;10.02;;;;;;;;;;5003053;28;20030;-73
2023/04/20 12:50:32;;;;;;;12.50;10.75;;;;;;;;;;5002526;28;20473;-72
2023/04/20 12:52:57;;;;;;;10.35;8.77;;;;;;;;;;5014425;28;20057;-72
2023/04/20 12:55:24;;;;;;;8.43;7.45;;;;;;;;;;5003604;28;20420;-71
2023/04/20 12:57:50;;;;;;;9.82;8.57;;;;;;;;;;5003318;28;20049;-74
2023/04/20 13:00:15;;;;;;;14.25;11.68;;;;;;;;;;4999455;28;20048;-72
2023/04/20 13:02:40;;;;;;;79.53;49.88;;;;;;;;;;5001988;28;20455;-74
2023/04/20 13:05:06;;;;;;;76.93;50.60;;;;;;;;;;5002651;28;20041;-72
2023/04/20 13:07:32;;;;;;;32.47;24.38;;;;;;;;;;5003261;28;20032;-71
2023/04/20 13:09:58;;;;;;;27.02;21.80;;;;;;;;;;5010530;28;20033;-72
2023/04/20 13:12:23;;;;;;;23.08;19.45;;;;;;;;;;5014375;28;20044;-70
2023/04/20 13:14:50;;;;;;;21.40;16.60;;;;;;;;;;5012358;28;20029;-71
2023/04/20 13:17:15;;;;;;;18.42;15.45;;;;;;;;;;5015776;28;20033;-73
2023/04/20 13:19:41;;;;;;;17.67;15.65;;;;;;;;;;5014997;28;20037;-72
2023/04/20 13:22:06;;;;;;;37.60;26.15;;;;;;;;;;5014231;28;20069;-71
2023/04/20 13:24:31;;;;;;;36.67;29.20;;;;;;;;;;5015019;28;21136;-71
2023/04/20 13:26:57;;;;;;;52.78;34.60;;;;;;;;;;5013732;28;20352;-70
2023/04/20 13:29:25;;;;;;;56.92;36.45;;;;;;;;;;5014469;28;20041;-70
2023/04/20 13:31:51;;;;;;;28.92;19.85;;;;;;;;;;5012124;28;20025;-73
2023/04/20 13:34:16;;;;;;;14.52;11.35;;;;;;;;;;5016564;28;20030;-71
2023/04/20 13:36:42;;;;;;;20.33;14.95;;;;;;;;;;5013637;28;20030;-72
2023/04/20 13:39:09;;;;;;;13.63;9.82;;;;;;;;;;5003679;28;20084;-71
2023/04/20 13:41:34;;;;;;;8.13;7.10;;;;;;;;;;5014201;28;20033;-71
2023/04/20 13:44:00;;;;;;;7.38;6.20;;;;;;;;;;5014508;28;20343;-74
2023/04/20 13:46:26;;;;;;;10.07;7.57;;;;;;;;;;5014033;28;20390;-73
2023/04/20 13:48:51;;;;;;;12.05;8.52;;;;;;;;;;5006047;28;20125;-71
2023/04/20 13:51:16;;;;;;;8.57;7.22;;;;;;;;;;5010093;28;20033;-72
2023/04/20 13:53:42;;;;;;;14.10;8.93;;;;;;;;;;5014676;28;20029;-72
2023/04/20 13:56:09;;;;;;;21.35;15.02;;;;;;;;;;5005266;28;20029;-71
2023/04/20 13:58:35;;;;;;;10.50;8.00;;;;;;;;;;4999794;28;20447;-74
2023/04/20 14:01:00;;;;;;;6.75;5.45;;;;;;;;;;5009896;28;20033;-73
2023/04/20 14:03:25;;;;;;;5.85;5.30;;;;;;;;;;5012251;28;20030;-73
2023/04/20 14:05:51;;;;;;;5.80;5.30;;;;;;;;;;5000700;28;20087;-72
2023/04/20 14:08:16;;;;;;;7.32;5.30;;;;;;;;;;5016931;28;20463;-72
2023/04/20 14:10:42;;;;;;;6.28;5.38;;;;;;;;;;5010259;28;20345;-72